Time;durP1;ratioP1;P1;durP2;ratioP2;P2;SDS_P1;SDS_P2;PMS_P1;PMS_P2;Temp;Humidity;BMP_temperature;BMP_pressure;BME280_temperature;BME280_humidity;BME280_pressure;Samples;Min_cycle;Max_cycle;Signal;HPM_P1;HPM_P2
2022/01/27 00:01:25;;;;;;;40.15;14.20;;;;;;;-3.61;66.28;99833.81;1731348;80;21101;-50
2022/01/27 00:03:46;;;;;;;30.77;12.23;;;;;;;-3.70;66.21;99831.09;1737315;80;20918;-50
2022/01/27 00:06:09;;;;;;;29.57;11.33;;;;;;;-3.78;66.19;99835.83;1735981;80;21964;-49
2022/01/27 00:11:09;;;;;;;37.23;13.93;;;;;;;-3.91;66.23;99834.80;1736179;80;22436;-51
2022/01/27 00:13:32;;;;;;;32.97;13.67;;;;;;;-3.97;66.17;99836.05;1762308;78;20969;-50
2022/01/27 00:16:54;;;;;;;31.10;12.37;;;;;;;-4.04;66.32;99834.23;1769873;78;20939;-50
2022/01/27 00:18:30;;;;;;;30.20;12.77;;;;;;;-4.10;66.29;99835.05;1779387;77;21256;-50
2022/01/27 00:20:56;;;;;;;33.20;13.20;;;;;;;-4.17;66.45;99833.65;1793614;77;21283;-50
2022/01/27 00:23:23;;;;;;;36.47;13.93;;;;;;;-4.23;66.66;99839.69;1778032;78;21476;-51
2022/01/27 00:25:49;;;;;;;33.13;12.80;;;;;;;-4.25;66.85;99842.73;1791902;77;20942;-49
2022/01/27 00:28:15;;;;;;;22.73;10.47;;;;;;;-4.27;66.98;99835.28;1794091;77;21069;-49
2022/01/27 00:30:42;;;;;;;25.73;10.73;;;;;;;-4.29;67.11;99839.63;1794086;77;21082;-50
2022/01/27 00:33:08;;;;;;;27.73;11.77;;;;;;;-4.32;67.23;99835.64;1792060;77;21169;-50
2022/01/27 00:35:35;;;;;;;31.00;12.13;;;;;;;-4.33;67.35;99831.23;1797365;77;21044;-50
2022/01/27 00:38:02;;;;;;;31.00;12.40;;;;;;;-4.33;67.47;99826.87;1773610;78;21341;-51
2022/01/27 00:40:29;;;;;;;46.27;16.87;;;;;;;-4.33;67.43;99823.36;1793377;77;21255;-51
2022/01/27 00:42:55;;;;;;;39.20;16.80;;;;;;;-4.34;67.46;99816.37;1791793;77;21562;-50
2022/01/27 00:45:23;;;;;;;42.00;16.60;;;;;;;-4.36;67.66;99820.71;1780231;78;21050;-49
2022/01/27 00:47:49;;;;;;;46.23;17.73;;;;;;;-4.35;67.75;99818.54;1773896;78;20875;-49
2022/01/27 00:50:18;;;;;;;44.83;18.33;;;;;;;-4.39;67.65;99821.98;1775033;78;21070;-50
2022/01/27 00:52:52;;;;;;;51.60;19.90;;;;;;;-4.43;67.77;99824.13;1774372;78;21057;-50
2022/01/27 00:55:17;;;;;;;42.47;16.60;;;;;;;-4.46;67.95;99824.97;1794707;77;21094;-50
2022/01/27 01:00:18;;;;;;;46.87;19.23;;;;;;;-4.57;67.81;99823.94;1792588;77;20906;-50
2022/01/27 01:05:34;;;;;;;43.60;19.63;;;;;;;-4.67;68.46;99820.73;1797699;77;21362;-50
2022/01/27 01:07:48;;;;;;;44.17;17.90;;;;;;;-4.65;68.63;99820.33;1789208;77;21106;-51
2022/01/27 01:15:32;;;;;;;42.70;17.40;;;;;;;-4.65;68.82;99833.45;1773306;78;21065;-50
2022/01/27 01:20:31;;;;;;;42.53;16.93;;;;;;;-4.60;69.08;99821.29;1797598;77;21599;-49
2022/01/27 01:33:41;;;;;;;38.83;17.67;;;;;;;-4.44;69.33;99815.37;1752656;77;22164;-49
2022/01/27 01:36:16;;;;;;;40.17;16.50;;;;;;;-4.41;69.26;99812.75;1796468;77;21064;-51
2022/01/27 01:38:44;;;;;;;35.38;14.63;;;;;;;-4.41;69.43;99806.19;1799481;77;21102;-49
2022/01/27 02:10:09;;;;;;;21.90;7.20;;;;;;;-4.12;69.82;99810.48;1800751;77;20909;-50
2022/01/27 02:18:00;;;;;;;12.43;3.30;;;;;;;-4.00;69.56;99792.66;1797279;77;20963;-49
2022/01/27 02:20:31;;;;;;;10.17;2.73;;;;;;;-3.94;69.41;99785.71;1796840;77;21019;-50
2022/01/27 02:22:58;;;;;;;8.13;2.47;;;;;;;-3.87;69.13;99779.64;1798419;77;21931;-50
2022/01/27 02:27:55;;;;;;;8.40;2.00;;;;;;;-3.69;68.65;99768.84;1857212;74;26725;-50
2022/01/27 02:30:22;;;;;;;8.53;1.80;;;;;;;-3.67;68.38;99768.43;1842860;75;20924;-50
2022/01/27 02:40:59;;;;;;;6.83;1.60;;;;;;;-3.49;67.50;99758.06;1838180;75;20931;-49
2022/01/27 02:43:26;;;;;;;6.10;1.60;;;;;;;-3.46;67.26;99766.84;1815432;75;20882;-51
2022/01/27 02:46:08;;;;;;;5.57;1.90;;;;;;;-3.44;67.11;99766.43;1832353;75;21039;-51
2022/01/27 02:48:34;;;;;;;6.43;1.90;;;;;;;-3.38;66.92;99774.80;1814492;75;22548;-51
2022/01/27 02:51:01;;;;;;;8.40;2.23;;;;;;;-3.37;66.71;99766.03;1832021;75;21385;-51
2022/01/27 02:53:27;;;;;;;5.47;1.77;;;;;;;-3.33;66.61;99773.09;1838107;75;21475;-51
2022/01/27 02:55:53;;;;;;;6.57;2.07;;;;;;;-3.31;66.42;99770.02;1837726;75;21078;-51
2022/01/27 02:58:19;;;;;;;5.67;1.70;;;;;;;-3.28;66.24;99759.95;1830358;77;21094;-52
2022/01/27 03:00:46;;;;;;;5.97;2.50;;;;;;;-3.25;66.10;99773.16;1827813;75;21586;-51
2022/01/27 03:03:12;;;;;;;9.47;2.27;;;;;;;-3.24;66.00;99779.75;1827358;75;21101;-52
2022/01/27 03:05:38;;;;;;;5.40;2.30;;;;;;;-3.24;65.88;99775.80;1826863;75;21027;-52
2022/01/27 03:08:05;;;;;;;9.27;3.33;;;;;;;-3.21;65.80;99765.27;1827755;75;21106;-51
2022/01/27 03:10:46;;;;;;;10.07;3.27;;;;;;;-3.18;65.72;99757.84;1827844;76;21042;-52
2022/01/27 03:13:13;;;;;;;14.17;2.93;;;;;;;-3.17;65.60;99756.55;1830600;75;21849;-51
2022/01/27 03:15:39;;;;;;;10.27;3.73;;;;;;;-3.17;65.47;99746.02;1827440;75;21701;-52
2022/01/27 03:18:06;;;;;;;15.47;3.67;;;;;;;-3.15;65.32;99739.45;1827953;75;21056;-52
2022/01/27 03:20:33;;;;;;;9.27;3.50;;;;;;;-3.14;65.24;99735.91;1830595;75;20967;-51
2022/01/27 03:23:01;;;;;;;9.13;2.93;;;;;;;-3.13;65.18;99734.61;1828382;75;21124;-51
2022/01/27 03:25:27;;;;;;;7.83;2.57;;;;;;;-3.11;65.04;99735.94;1827717;75;21784;-52
2022/01/27 03:27:54;;;;;;;8.73;2.80;;;;;;;-3.09;64.82;99740.36;1826199;75;21365;-51
2022/01/27 03:30:21;;;;;;;8.93;3.20;;;;;;;-3.09;64.68;99736.41;1828383;75;21074;-51
2022/01/27 03:32:47;;;;;;;10.13;2.37;;;;;;;-3.07;64.62;99742.57;1827743;75;21610;-51
2022/01/27 03:35:14;;;;;;;7.53;2.87;;;;;;;-3.09;64.55;99736.41;1827648;75;21069;-51
2022/01/27 03:37:40;;;;;;;10.53;3.63;;;;;;;-3.08;64.50;99730.27;1827056;75;21795;-51
2022/01/27 03:40:09;;;;;;;9.23;4.10;;;;;;;-3.07;64.42;99724.57;1829052;75;21141;-51
2022/01/27 03:42:43;;;;;;;13.97;5.50;;;;;;;-3.09;64.33;99728.51;1828390;75;20950;-51
2022/01/27 03:45:04;;;;;;;13.20;7.70;;;;;;;-3.11;64.15;99718.39;1824928;75;21464;-51
2022/01/27 03:47:31;;;;;;;11.03;7.33;;;;;;;-3.14;64.07;99719.68;1828210;75;21532;-52
2022/01/27 03:49:57;;;;;;;21.13;13.07;;;;;;;-3.14;64.00;99725.38;1832398;75;21388;-51
2022/01/27 03:52:24;;;;;;;19.27;10.73;;;;;;;-3.16;63.99;99712.66;1830921;75;21577;-52
2022/01/27 03:54:50;;;;;;;15.83;8.33;;;;;;;-3.20;63.92;99705.17;1830832;75;21089;-51
2022/01/27 03:57:16;;;;;;;10.07;6.07;;;;;;;-3.24;63.84;99702.09;1829264;75;21117;-51
2022/01/27 03:59:42;;;;;;;10.50;4.73;;;;;;;-3.27;63.75;99704.70;1826643;75;21079;-51
2022/01/27 04:02:09;;;;;;;10.60;4.07;;;;;;;-3.30;63.69;99701.15;1829730;75;22134;-52
2022/01/27 04:04:35;;;;;;;13.93;3.30;;;;;;;-3.34;63.59;99698.95;1831697;75;21579;-52
2022/01/27 04:07:03;;;;;;;8.33;3.57;;;;;;;-3.38;63.53;99705.48;1828729;75;21008;-51
2022/01/27 04:09:30;;;;;;;10.13;2.63;;;;;;;-3.46;63.47;99697.11;1827692;75;21077;-51
2022/01/27 04:11:56;;;;;;;10.53;2.73;;;;;;;-3.53;63.46;99703.20;1828564;75;20876;-51
2022/01/27 04:14:22;;;;;;;8.47;2.33;;;;;;;-3.57;63.41;99699.20;1830245;75;21089;-51
2022/01/27 04:16:49;;;;;;;7.80;2.17;;;;;;;-3.64;63.43;99695.66;1825351;75;21078;-52
2022/01/27 04:19:15;;;;;;;11.67;4.97;;;;;;;-3.68;63.46;99699.15;1828836;75;21029;-51
2022/01/27 04:21:41;;;;;;;72.57;34.60;;;;;;;-3.76;63.41;99691.63;1826401;76;21026;-51
2022/01/27 04:24:10;;;;;;;48.30;22.13;;;;;;;-3.83;63.52;99698.56;1826695;77;21042;-52
2022/01/27 04:26:43;;;;;;;34.10;15.33;;;;;;;-3.90;63.58;99688.87;1827109;75;21533;-51
2022/01/27 04:29:04;;;;;;;13.53;4.97;;;;;;;-3.94;63.58;99686.22;1826989;75;21487;-52
2022/01/27 04:31:31;;;;;;;10.20;2.80;;;;;;;-4.01;63.59;99668.20;1826213;75;21824;-51
2022/01/27 04:33:58;;;;;;;7.37;2.27;;;;;;;-4.05;63.73;99679.55;1828354;75;21081;-51
2022/01/27 04:36:32;;;;;;;12.93;3.07;;;;;;;-4.12;63.77;99679.05;1832216;75;21244;-51
2022/01/27 04:42:42;;;;;;;4.53;1.87;;;;;;;-4.20;64.04;99680.72;1826730;75;21014;-51
2022/01/27 04:44:18;;;;;;;7.43;2.17;;;;;;;-4.23;64.12;99681.56;1787362;76;21058;-51
2022/01/27 04:49:20;;;;;;;;;;;;;;;-4.31;64.26;99677.98;1829682;75;21042;-48
2022/01/27 04:51:47;;;;;;;7.60;3.43;;;;;;;-4.35;64.42;99687.16;1826516;75;21181;-49
2022/01/27 04:54:20;;;;;;;9.20;2.47;;;;;;;-4.39;64.56;99675.72;1827097;75;21097;-51
2022/01/27 04:56:42;;;;;;;6.23;2.37;;;;;;;-4.43;64.63;99673.05;1823803;75;21035;-50
2022/01/27 04:59:17;;;;;;;8.43;2.93;;;;;;;-4.47;64.77;99676.07;1828250;75;21179;-49
2022/01/27 05:01:45;;;;;;;6.43;2.57;;;;;;;-4.49;64.89;99667.72;1824364;75;21093;-49
2022/01/27 05:04:11;;;;;;;6.47;2.87;;;;;;;-4.52;64.93;99671.22;1824757;75;22930;-51
2022/01/27 05:06:36;;;;;;;9.37;2.40;;;;;;;-4.54;64.97;99670.74;1827336;75;21406;-49
2022/01/27 05:09:04;;;;;;;5.70;2.57;;;;;;;-4.58;65.00;99677.69;1829827;76;20888;-49
2022/01/27 05:11:46;;;;;;;5.57;2.70;;;;;;;-4.60;65.15;99672.45;1832151;75;20931;-49
2022/01/27 05:14:22;;;;;;;9.37;2.17;;;;;;;-4.61;65.28;99669.80;1826650;75;21455;-50
2022/01/27 05:16:48;;;;;;;7.20;3.43;;;;;;;-4.63;65.33;99675.46;1828646;75;21074;-50
2022/01/27 05:19:15;;;;;;;5.83;2.57;;;;;;;-4.65;65.45;99678.06;1829149;75;21025;-49
2022/01/27 05:21:41;;;;;;;8.83;2.17;;;;;;;-4.68;65.54;99676.70;1835521;75;20875;-49
2022/01/27 05:24:07;;;;;;;7.37;2.10;;;;;;;-4.70;65.63;99677.14;1826721;75;21370;-50
2022/01/27 05:26:34;;;;;;;10.00;2.80;;;;;;;-4.71;65.79;99675.38;1832953;77;20903;-50
2022/01/27 05:29:02;;;;;;;5.87;2.13;;;;;;;-4.72;65.86;99671.41;1832003;75;21024;-49
2022/01/27 05:31:29;;;;;;;4.47;2.30;;;;;;;-4.74;65.94;99667.45;1829303;75;20924;-49
2022/01/27 05:33:55;;;;;;;10.87;3.57;;;;;;;-4.76;66.02;99673.11;1828002;76;21049;-49
2022/01/27 05:36:21;;;;;;;7.43;2.67;;;;;;;-4.78;66.16;99667.42;1830837;75;20888;-50
2022/01/27 05:38:48;;;;;;;4.73;2.30;;;;;;;-4.78;66.29;99676.18;1831466;75;21394;-48
2022/01/27 05:41:14;;;;;;;9.40;4.63;;;;;;;-4.77;66.36;99677.06;1831706;76;21072;-49
2022/01/27 05:43:42;;;;;;;23.40;13.17;;;;;;;-4.77;66.52;99675.75;1836358;76;20908;-49
2022/01/27 05:46:08;;;;;;;25.60;13.63;;;;;;;-4.78;66.70;99674.87;1829425;76;20942;-49
2022/01/27 05:48:34;;;;;;;23.83;11.40;;;;;;;-4.77;66.86;99673.13;1831261;77;20918;-49
2022/01/27 05:51:01;;;;;;;36.13;18.77;;;;;;;-4.76;66.97;99674.42;1791080;77;20932;-49
2022/01/27 05:53:30;;;;;;;27.37;13.07;;;;;;;-4.76;67.14;99674.86;1762022;80;21909;-48
2022/01/27 05:55:56;;;;;;;18.27;9.27;;;;;;;-4.73;67.23;99679.72;1792658;77;21069;-49
2022/01/27 05:58:23;;;;;;;25.30;14.23;;;;;;;-4.69;67.31;99684.16;1790066;77;20950;-49
2022/01/27 06:00:49;;;;;;;26.43;17.80;;;;;;;-4.65;67.41;99683.75;1792314;79;20887;-49
2022/01/27 06:03:15;;;;;;;19.50;11.00;;;;;;;-4.62;67.44;99678.11;1790383;77;21778;-49
2022/01/27 06:05:41;;;;;;;16.27;10.07;;;;;;;-4.58;67.51;99673.32;1792521;77;21086;-48
2022/01/27 06:08:09;;;;;;;13.47;9.23;;;;;;;-4.55;67.59;99673.80;1762181;78;21041;-48
2022/01/27 06:10:36;;;;;;;13.07;8.40;;;;;;;-4.51;67.66;99675.61;1759106;78;21096;-49
2022/01/27 06:13:03;;;;;;;13.70;6.73;;;;;;;-4.44;67.72;99673.92;1792883;77;21049;-48
2022/01/27 06:15:30;;;;;;;14.20;7.17;;;;;;;-4.39;67.74;99674.41;1779688;78;20933;-49
2022/01/27 06:17:57;;;;;;;14.20;7.90;;;;;;;-4.33;67.82;99674.89;1782319;79;21537;-49
2022/01/27 06:20:24;;;;;;;12.00;6.47;;;;;;;-4.28;67.80;99670.14;1773801;78;21380;-49
2022/01/27 06:22:58;;;;;;;9.77;4.27;;;;;;;-4.22;67.86;99664.05;1776093;78;21116;-49
2022/01/27 06:25:26;;;;;;;11.50;4.95;;;;;;;-4.15;67.86;99655.34;1772555;78;21984;-50
2022/01/27 06:27:53;;;;;;;10.27;3.80;;;;;;;-4.07;67.86;99655.41;1775105;79;20867;-49
2022/01/27 06:30:20;;;;;;;6.53;2.70;;;;;;;-4.01;67.82;99658.12;1775732;79;21827;-49
2022/01/27 06:32:46;;;;;;;7.23;2.83;;;;;;;-3.95;67.89;99647.21;1773015;79;21050;-48
2022/01/27 06:35:13;;;;;;;7.13;2.63;;;;;;;-3.88;67.89;99642.87;1774887;79;21091;-49
2022/01/27 06:37:44;;;;;;;11.47;3.87;;;;;;;-3.81;67.94;99631.09;1770263;78;21053;-49
2022/01/27 06:40:14;;;;;;;8.37;3.77;;;;;;;-3.69;67.96;99628.11;1793285;77;21063;-49
2022/01/27 06:42:41;;;;;;;9.30;3.37;;;;;;;-3.62;67.89;99622.89;1775189;78;21088;-49
2022/01/27 06:45:09;;;;;;;9.03;3.43;;;;;;;-3.52;67.86;99626.47;1765284;79;21468;-48
2022/01/27 06:47:36;;;;;;;10.07;4.60;;;;;;;-3.41;67.81;99628.73;1777646;78;21017;-50
2022/01/27 06:50:04;;;;;;;10.00;4.20;;;;;;;-3.32;67.72;99630.10;1790182;77;21086;-49
2022/01/27 06:52:31;;;;;;;7.10;3.30;;;;;;;-3.23;67.61;99620.91;1792568;78;21701;-49
2022/01/27 06:54:57;;;;;;;12.03;4.73;;;;;;;-3.17;67.61;99618.33;1798412;77;21127;-49
2022/01/27 06:57:24;;;;;;;12.90;5.17;;;;;;;-3.10;67.59;99621.86;1787732;79;21106;-49
2022/01/27 06:59:50;;;;;;;14.83;6.33;;;;;;;-3.06;67.55;99621.86;1788325;77;21164;-49
2022/01/27 07:02:16;;;;;;;11.97;6.27;;;;;;;-2.99;67.53;99620.16;1770024;79;21592;-49
2022/01/27 07:04:43;;;;;;;9.27;4.17;;;;;;;-2.94;67.55;99617.52;1770104;79;21826;-49
2022/01/27 07:07:10;;;;;;;9.80;4.33;;;;;;;-2.91;67.50;99613.59;1768375;79;21642;-50
2022/01/27 07:09:36;;;;;;;9.60;4.57;;;;;;;-2.86;67.52;99611.84;1771222;80;21455;-49
2022/01/27 07:12:04;;;;;;;8.17;4.10;;;;;;;-2.83;67.51;99612.74;1771428;79;21080;-49
2022/01/27 07:14:32;;;;;;;12.60;4.80;;;;;;;-2.81;67.54;99604.41;1770770;79;21502;-49
2022/01/27 07:16:59;;;;;;;7.97;4.40;;;;;;;-2.76;67.52;99604.41;1775644;79;21078;-49
2022/01/27 07:19:26;;;;;;;6.67;4.07;;;;;;;-2.74;67.56;99600.92;1775397;79;21813;-49
2022/01/27 07:21:52;;;;;;;8.60;4.27;;;;;;;-2.72;67.58;99599.58;1767271;79;21062;-49
2022/01/27 07:24:18;;;;;;;9.20;4.27;;;;;;;-2.69;67.67;99604.87;1775825;78;21064;-49
2022/01/27 07:26:45;;;;;;;8.63;3.90;;;;;;;-2.66;67.78;99600.93;1770475;79;21051;-50
2022/01/27 07:29:11;;;;;;;14.17;5.17;;;;;;;-2.63;67.86;99596.08;1770190;78;21135;-49
2022/01/27 07:31:37;;;;;;;9.40;3.67;;;;;;;-2.60;67.89;99592.14;1744863;79;21161;-49
2022/01/27 07:34:05;;;;;;;10.70;4.60;;;;;;;-2.57;67.93;99585.14;1759210;79;21393;-49
2022/01/27 07:36:33;;;;;;;7.70;4.43;;;;;;;-2.54;67.99;99582.92;1771576;78;21093;-50
2022/01/27 07:39:01;;;;;;;12.23;5.63;;;;;;;-2.54;68.05;99585.12;1788277;78;21572;-49
2022/01/27 07:41:27;;;;;;;10.87;4.90;;;;;;;-2.52;68.17;99582.50;1773088;79;21754;-50
2022/01/27 07:43:53;;;;;;;11.60;5.33;;;;;;;-2.49;68.31;99580.76;1772235;79;21057;-49
2022/01/27 07:46:19;;;;;;;10.33;4.53;;;;;;;-2.47;68.43;99579.02;1771167;79;21079;-50
2022/01/27 07:48:46;;;;;;;11.67;4.30;;;;;;;-2.42;68.46;99581.20;1785995;78;21090;-50
2022/01/27 07:51:12;;;;;;;12.17;5.47;;;;;;;-2.39;68.50;99574.63;1786365;77;21086;-50
2022/01/27 07:53:39;;;;;;;8.80;4.07;;;;;;;-2.34;68.62;99570.22;1789817;78;21121;-49
2022/01/27 07:56:06;;;;;;;11.50;4.53;;;;;;;-2.30;68.77;99570.64;1793106;78;21113;-49
2022/01/27 07:58:38;;;;;;;9.67;4.37;;;;;;;-2.24;68.85;99566.27;1786672;79;21062;-50
2022/01/27 08:01:02;;;;;;;10.50;4.33;;;;;;;-2.21;68.93;99575.04;1753932;79;21043;-50
2022/01/27 08:03:28;;;;;;;13.00;4.33;;;;;;;-2.18;69.03;99570.22;1774802;78;21048;-50
2022/01/27 08:05:55;;;;;;;13.83;6.70;;;;;;;-2.13;69.17;99565.84;1769024;79;21427;-50
2022/01/27 08:08:21;;;;;;;11.13;5.43;;;;;;;-2.10;69.25;99568.45;1768772;79;21409;-50
2022/01/27 08:10:48;;;;;;;23.80;12.13;;;;;;;-2.06;69.33;99568.47;1788715;78;21431;-49
2022/01/27 08:13:14;;;;;;;14.77;7.80;;;;;;;-2.02;69.43;99571.52;1788034;78;21059;-49
2022/01/27 08:15:41;;;;;;;12.67;9.00;;;;;;;-1.97;69.58;99559.67;1792515;79;21631;-51
2022/01/27 08:18:07;;;;;;;18.20;11.33;;;;;;;-1.90;69.64;99557.45;1788220;77;21591;-49
2022/01/27 08:20:34;;;;;;;15.50;7.63;;;;;;;-1.86;69.66;99563.58;1788549;79;21158;-50
2022/01/27 08:23:01;;;;;;;16.87;6.80;;;;;;;-1.84;69.72;99561.83;1775488;78;21072;-50
2022/01/27 08:25:27;;;;;;;14.40;6.67;;;;;;;-1.79;69.76;99568.00;1791790;79;21071;-49
2022/01/27 08:27:56;;;;;;;12.50;6.10;;;;;;;-1.75;69.82;99567.09;1775863;78;21084;-50
2022/01/27 08:30:25;;;;;;;13.73;5.70;;;;;;;-1.71;69.90;99564.91;1778914;78;21040;-51
2022/01/27 08:33:04;;;;;;;14.57;6.13;;;;;;;-1.67;69.99;99563.56;1776454;78;21914;-50
2022/01/27 08:35:19;;;;;;;11.77;6.70;;;;;;;-1.63;70.07;99567.08;1780665;78;21004;-50
2022/01/27 08:37:46;;;;;;;13.37;6.33;;;;;;;-1.59;70.12;99558.26;1781372;79;21379;-50
2022/01/27 08:40:14;;;;;;;13.00;6.13;;;;;;;-1.55;70.16;99555.62;1782544;78;21456;-50
2022/01/27 08:42:41;;;;;;;12.20;6.27;;;;;;;-1.50;70.18;99549.44;1786533;78;20941;-51
2022/01/27 08:45:11;;;;;;;15.10;7.30;;;;;;;-1.46;70.15;99543.28;1783543;78;21420;-50
2022/01/27 08:47:38;;;;;;;11.07;6.03;;;;;;;-1.44;70.18;99546.33;1787498;78;21416;-50
2022/01/27 08:50:05;;;;;;;13.87;5.80;;;;;;;-1.40;70.17;99547.20;1781010;78;21448;-50
2022/01/27 08:52:32;;;;;;;10.00;6.10;;;;;;;-1.38;70.18;99546.77;1780642;78;21513;-51
2022/01/27 08:54:59;;;;;;;11.53;6.27;;;;;;;-1.36;70.31;99546.33;1782130;78;20956;-50
2022/01/27 08:57:25;;;;;;;11.50;6.67;;;;;;;-1.36;70.35;99546.33;1781969;78;21717;-49
2022/01/27 08:59:53;;;;;;;8.43;4.63;;;;;;;-1.35;70.42;99541.45;1784746;78;21384;-50
2022/01/27 09:02:20;;;;;;;12.80;6.50;;;;;;;-1.33;70.57;99535.29;1782235;78;21357;-49
2022/01/27 09:04:47;;;;;;;13.13;6.30;;;;;;;-1.31;70.64;99533.97;1780764;78;20910;-50
2022/01/27 09:07:15;;;;;;;14.20;7.40;;;;;;;-1.29;70.88;99526.48;1774607;78;21013;-50
2022/01/27 09:09:44;;;;;;;13.97;7.00;;;;;;;-1.23;71.09;99528.21;1775083;78;21126;-51
2022/01/27 09:12:13;;;;;;;12.47;7.87;;;;;;;-1.17;71.17;99521.13;1778517;78;21061;-50
2022/01/27 09:14:42;;;;;;;11.40;7.07;;;;;;;-1.09;71.32;99518.45;1770508;79;21389;-50
2022/01/27 09:17:10;;;;;;;13.03;7.00;;;;;;;-1.00;71.34;99517.08;1768820;78;21104;-50
2022/01/27 09:19:40;;;;;;;11.80;7.73;;;;;;;-0.93;71.28;99505.58;1786857;77;21501;-50
2022/01/27 09:22:13;;;;;;;13.20;7.17;;;;;;;-0.87;71.25;99509.97;1796048;77;21354;-50
2022/01/27 09:24:55;;;;;;;16.53;9.60;;;;;;;-0.83;71.18;99507.28;1791513;77;21573;-51
2022/01/27 09:27:11;;;;;;;13.33;8.03;;;;;;;-0.78;71.24;99510.80;1792525;77;21084;-50
2022/01/27 09:29:37;;;;;;;14.60;7.27;;;;;;;-0.71;71.35;99509.42;1760574;78;21125;-51
2022/01/27 09:32:05;;;;;;;14.77;8.63;;;;;;;-0.68;71.37;99504.13;1792532;77;21212;-52
2022/01/27 09:34:32;;;;;;;16.20;9.60;;;;;;;-0.66;71.38;99497.03;1798036;77;21762;-50
2022/01/27 09:37:02;;;;;;;16.60;8.13;;;;;;;-0.65;71.38;99501.00;1791748;77;21059;-50
2022/01/27 09:39:27;;;;;;;14.10;8.20;;;;;;;-0.63;71.45;99493.06;1799024;78;21089;-51
2022/01/27 09:41:55;;;;;;;21.57;10.10;;;;;;;-0.61;71.49;99486.88;1774655;78;21061;-51
2022/01/27 09:44:28;;;;;;;17.40;10.27;;;;;;;-0.57;71.53;99500.49;1792626;77;21085;-51
2022/01/27 09:46:57;;;;;;;19.27;11.47;;;;;;;-0.55;71.53;99497.84;1774043;78;21581;-51
2022/01/27 09:49:35;;;;;;;17.63;11.23;;;;;;;-0.54;71.56;99492.99;1793787;77;21385;-50
2022/01/27 09:51:59;;;;;;;;;;;;;;;-0.52;71.59;99489.45;1775925;78;21570;-50
2022/01/27 09:54:26;;;;;;;17.00;9.70;;;;;;;-0.47;71.73;99493.37;1796418;77;20338;-51
2022/01/27 09:56:53;;;;;;;21.37;13.37;;;;;;;-0.47;71.80;99486.31;1789519;79;21090;-51
2022/01/27 09:59:21;;;;;;;22.47;13.23;;;;;;;-0.44;71.90;99487.62;1789500;77;21015;-51
2022/01/27 10:02:07;;;;;;;24.60;13.03;;;;;;;-0.42;71.91;99487.58;1788662;77;20915;-50
2022/01/27 10:04:46;;;;;;;18.70;11.23;;;;;;;-0.42;71.98;99483.62;1776581;79;20996;-50
2022/01/27 10:07:18;;;;;;;18.63;12.00;;;;;;;-0.45;72.11;99484.55;1765421;79;21074;-50
2022/01/27 10:10:11;;;;;;;14.80;9.37;;;;;;;-0.47;72.20;99475.73;1755791;79;21009;-50
2022/01/27 10:12:49;;;;;;;21.07;9.73;;;;;;;-0.48;72.29;99470.45;1761260;79;21133;-50
2022/01/27 10:15:19;;;;;;;19.17;10.53;;;;;;;-0.49;72.46;99467.37;1772613;79;21038;-50
2022/01/27 10:18:06;;;;;;;19.87;10.03;;;;;;;-0.49;72.53;99462.97;1758966;80;20951;-52
2022/01/27 10:20:34;;;;;;;18.37;10.37;;;;;;;-0.47;72.67;99462.52;1777152;78;21130;-50
2022/01/27 10:23:22;;;;;;;22.33;13.03;;;;;;;-0.48;72.78;99455.47;1778062;79;20943;-50
2022/01/27 10:25:55;;;;;;;23.20;12.27;;;;;;;-0.49;72.84;99459.00;1772011;79;21587;-51
2022/01/27 10:28:46;;;;;;;24.67;11.83;;;;;;;-0.50;72.99;99455.05;1777908;78;20910;-49
2022/01/27 10:31:20;;;;;;;22.00;11.83;;;;;;;-0.51;73.12;99452.00;1755910;80;21019;-51
2022/01/27 10:33:59;;;;;;;20.40;11.43;;;;;;;-0.51;73.27;99453.32;1771070;79;21005;-50
2022/01/27 10:36:41;;;;;;;23.23;12.37;;;;;;;-0.50;73.43;99449.31;1776006;80;20927;-51
2022/01/27 10:39:16;;;;;;;21.57;13.30;;;;;;;-0.49;73.51;99456.80;1777745;79;21503;-51
2022/01/27 10:42:07;;;;;;;19.55;11.20;;;;;;;-0.47;73.56;99447.09;1757141;79;21470;-51
2022/01/27 10:44:43;;;;;;;24.53;14.43;;;;;;;-0.45;73.68;99442.68;1772925;79;20863;-51
2022/01/27 10:47:19;;;;;;;23.53;14.73;;;;;;;-0.43;73.76;99436.94;1768380;79;20908;-50
2022/01/27 10:49:49;;;;;;;29.70;20.20;;;;;;;-0.41;73.81;99444.39;1772611;79;20938;-51
2022/01/27 10:52:41;;;;;;;30.60;21.83;;;;;;;-0.40;73.93;99427.64;1788083;77;21574;-51
2022/01/27 10:55:10;;;;;;;27.70;18.43;;;;;;;-0.38;74.01;99429.83;1761872;79;20910;-51
2022/01/27 10:57:36;;;;;;;30.93;18.07;;;;;;;-0.33;74.05;99429.77;1789750;77;21016;-50
2022/01/27 11:00:11;;;;;;;19.47;13.07;;;;;;;-0.32;74.15;99428.44;1775314;78;21370;-51
2022/01/27 11:02:59;;;;;;;19.40;12.77;;;;;;;-0.28;74.18;99422.69;1768872;79;21180;-50
2022/01/27 11:05:32;;;;;;;16.33;12.70;;;;;;;-0.27;74.24;99427.97;1776497;79;21862;-50
2022/01/27 11:07:58;;;;;;;21.93;13.47;;;;;;;-0.26;74.26;99417.82;1778359;78;20961;-49
2022/01/27 11:10:25;;;;;;;19.33;12.50;;;;;;;-0.23;74.30;99419.53;1781656;79;20988;-50
2022/01/27 11:12:53;;;;;;;20.97;11.97;;;;;;;-0.23;74.32;99409.84;1772831;79;21084;-51
2022/01/27 11:15:19;;;;;;;20.70;12.87;;;;;;;-0.21;74.38;99411.14;1789012;79;21094;-50
2022/01/27 11:17:47;;;;;;;21.13;12.87;;;;;;;-0.21;74.45;99417.31;1775501;79;21741;-50
2022/01/27 11:20:51;;;;;;;20.07;13.17;;;;;;;-0.20;74.54;99408.49;1778121;80;21460;-96
2022/01/27 11:27:53;;;;;;;17.50;11.93;;;;;;;-0.16;74.63;99400.05;1793180;78;21038;-51
2022/01/27 11:30:27;;;;;;;18.80;12.23;;;;;;;-0.15;74.71;99400.48;1763703;78;21145;-49
2022/01/27 11:33:00;;;;;;;21.15;12.55;;;;;;;-0.15;74.75;99393.88;1793753;77;21326;-50
2022/01/27 11:35:26;;;;;;;23.37;14.73;;;;;;;-0.15;74.86;99393.88;1759929;78;20875;-49
2022/01/27 11:37:57;;;;;;;24.83;14.47;;;;;;;-0.15;74.91;99393.43;1794467;77;20934;-49
2022/01/27 11:40:43;;;;;;;22.40;13.47;;;;;;;-0.16;75.00;99385.06;1791317;79;21025;-51
2022/01/27 11:43:12;;;;;;;22.87;13.90;;;;;;;-0.15;75.14;99384.62;1792161;77;21712;-49
2022/01/27 11:45:49;;;;;;;21.73;14.53;;;;;;;-0.14;75.29;99375.80;1794153;77;20863;-49
2022/01/27 11:48:23;;;;;;;27.40;19.00;;;;;;;-0.13;75.44;99374.91;1787511;77;20913;-49
2022/01/27 11:50:57;;;;;;;32.37;21.17;;;;;;;-0.10;75.55;99374.88;1794052;77;21029;-50
2022/01/27 11:53:45;;;;;;;;;;;;;;;-0.07;75.67;99370.86;1798495;77;21014;-50
2022/01/27 11:56:35;;;;;;;41.20;25.60;;;;;;;-0.01;75.76;99367.72;1799016;77;21118;-50
2022/01/27 11:59:04;;;;;;;40.37;26.63;;;;;;;0.03;75.90;99375.59;1793415;77;20898;-49
2022/01/27 12:01:34;;;;;;;32.63;21.27;;;;;;;0.05;75.94;99361.91;1795592;77;20863;-49
2022/01/27 12:04:09;;;;;;;32.73;21.17;;;;;;;0.09;76.03;99363.60;1795430;77;21949;-52
2022/01/27 12:06:50;;;;;;;39.53;24.27;;;;;;;0.11;76.07;99365.34;1789503;77;20953;-51
2022/01/27 12:09:26;;;;;;;30.57;20.40;;;;;;;0.12;76.13;99362.25;1791144;77;21749;-52
2022/01/27 12:12:02;;;;;;;29.57;18.50;;;;;;;0.16;76.19;99362.66;1769077;80;20906;-51
2022/01/27 12:14:42;;;;;;;32.87;18.97;;;;;;;0.17;76.25;99354.67;1796245;77;21654;-51
2022/01/27 12:17:15;;;;;;;30.80;19.60;;;;;;;0.19;76.30;99359.95;1792053;77;21209;-50
2022/01/27 12:19:50;;;;;;;33.60;18.37;;;;;;;0.22;76.30;99363.45;1792975;77;21040;-50
2022/01/27 12:22:16;;;;;;;;;;;;;;;0.23;76.35;99357.27;1792185;77;21864;-51
2022/01/27 12:25:00;;;;;;;29.77;17.43;;;;;;;0.25;76.39;99361.22;1790838;77;20280;-51
2022/01/27 12:27:29;;;;;;;30.72;16.15;;;;;;;0.28;76.48;99357.19;1795050;77;20926;-50
2022/01/27 12:29:57;;;;;;;26.63;16.40;;;;;;;0.29;76.48;99354.97;1789648;77;20902;-51
2022/01/27 12:32:28;;;;;;;26.07;16.70;;;;;;;0.31;76.53;99362.01;1791558;79;22049;-50
2022/01/27 12:35:00;;;;;;;27.03;16.37;;;;;;;0.32;76.57;99359.79;1761703;80;21753;-51
2022/01/27 12:37:34;;;;;;;28.37;17.10;;;;;;;0.34;76.59;99362.42;1788716;77;21294;-51
2022/01/27 12:40:10;;;;;;;29.93;17.07;;;;;;;0.34;76.63;99363.75;1793916;77;21009;-51
2022/01/27 12:42:37;;;;;;;28.03;17.07;;;;;;;0.35;76.62;99361.50;1802687;77;20899;-51
2022/01/27 12:45:13;;;;;;;30.73;17.17;;;;;;;0.34;76.64;99359.30;1786472;77;21131;-52
2022/01/27 12:47:43;;;;;;;30.27;17.30;;;;;;;0.35;76.69;99355.76;1798177;77;21085;-50
2022/01/27 12:50:13;;;;;;;27.17;16.20;;;;;;;0.36;76.77;99355.31;1795715;77;21600;-52
2022/01/27 12:52:43;;;;;;;32.90;18.13;;;;;;;0.38;76.91;99358.82;1799838;77;20942;-50
2022/01/27 12:55:19;;;;;;;29.17;18.67;;;;;;;0.36;77.04;99352.66;1792471;77;20938;-50
2022/01/27 12:57:58;;;;;;;27.93;16.77;;;;;;;0.37;77.19;99354.42;1798655;77;21050;-51